Time;durP1;ratioP1;P1;durP2;ratioP2;P2;SDS_P1;SDS_P2;PMS_P1;PMS_P2;Temp;Humidity;BMP_temperature;BMP_pressure;BME280_temperature;BME280_humidity;BME280_pressure;Samples;Min_cycle;Max_cycle;Signal;HPM_P1;HPM_P2
2022/12/10 00:00:46;;;;;;;16.85;13.30;;;;;;;;;;4969384;28;20086;-78
2022/12/10 00:03:14;;;;;;;19.25;13.68;;;;;;;;;;4987155;28;20053;-78
2022/12/10 00:05:41;;;;;;;18.23;14.00;;;;;;;;;;4985330;28;20066;-78
2022/12/10 00:08:08;;;;;;;19.27;12.55;;;;;;;;;;4987116;28;20050;-77
2022/12/10 00:10:39;;;;;;;21.25;15.85;;;;;;;;;;4986151;28;20051;-78
2022/12/10 00:13:07;;;;;;;18.23;13.50;;;;;;;;;;4997917;28;20082;-78
2022/12/10 00:15:35;;;;;;;17.45;12.95;;;;;;;;;;4985738;28;20050;-77
2022/12/10 00:18:02;;;;;;;19.77;14.50;;;;;;;;;;4963489;28;20055;-77
2022/12/10 00:20:29;;;;;;;19.67;13.48;;;;;;;;;;4971586;28;20047;-77
2022/12/10 00:22:57;;;;;;;17.25;13.63;;;;;;;;;;4954069;28;20519;-77
2022/12/10 00:25:24;;;;;;;16.17;12.57;;;;;;;;;;4954379;28;20050;-78
2022/12/10 00:27:51;;;;;;;20.65;15.00;;;;;;;;;;4966826;28;20578;-77
2022/12/10 00:30:19;;;;;;;21.42;15.25;;;;;;;;;;4968285;28;20093;-77
2022/12/10 00:32:46;;;;;;;19.20;13.93;;;;;;;;;;4954902;28;20051;-77
2022/12/10 00:35:13;;;;;;;18.30;14.35;;;;;;;;;;4953593;28;20051;-77
2022/12/10 00:37:41;;;;;;;22.45;16.80;;;;;;;;;;4968594;28;20171;-78
2022/12/10 00:40:10;;;;;;;24.70;17.90;;;;;;;;;;4966502;28;20043;-77
2022/12/10 00:42:37;;;;;;;20.25;14.10;;;;;;;;;;4950025;28;20043;-77
2022/12/10 00:45:05;;;;;;;18.25;12.68;;;;;;;;;;4950088;28;20054;-77
2022/12/10 00:47:33;;;;;;;19.48;13.38;;;;;;;;;;4951656;28;20046;-77
2022/12/10 00:50:00;;;;;;;19.80;14.40;;;;;;;;;;4971496;28;20046;-77
2022/12/10 00:52:27;;;;;;;23.80;14.88;;;;;;;;;;4971895;28;20053;-77
2022/12/10 00:54:57;;;;;;;21.38;14.60;;;;;;;;;;4952712;28;20115;-76
2022/12/10 00:57:24;;;;;;;18.08;13.43;;;;;;;;;;4971595;28;20038;-76
2022/12/10 00:59:52;;;;;;;19.67;13.55;;;;;;;;;;4954575;28;20069;-76
2022/12/10 01:02:19;;;;;;;20.80;15.82;;;;;;;;;;4971404;28;20047;-76
2022/12/10 01:04:47;;;;;;;19.10;14.55;;;;;;;;;;4970868;28;20443;-76
2022/12/10 01:07:14;;;;;;;22.38;14.80;;;;;;;;;;4971408;28;20134;-76
2022/12/10 01:09:41;;;;;;;21.63;14.07;;;;;;;;;;4954686;28;20043;-76
2022/12/10 01:12:09;;;;;;;24.90;16.60;;;;;;;;;;4961316;28;20039;-77
2022/12/10 01:14:36;;;;;;;19.80;14.93;;;;;;;;;;4930452;28;20415;-75
2022/12/10 01:17:04;;;;;;;19.13;14.15;;;;;;;;;;4953748;28;20046;-76
2022/12/10 01:19:32;;;;;;;21.38;15.00;;;;;;;;;;4971056;28;20478;-75
2022/12/10 01:22:01;;;;;;;24.25;16.10;;;;;;;;;;4954296;28;20043;-76
2022/12/10 01:24:29;;;;;;;22.30;15.55;;;;;;;;;;4953223;28;20035;-77
2022/12/10 01:26:57;;;;;;;20.35;14.40;;;;;;;;;;4952228;28;20472;-77
2022/12/10 01:29:26;;;;;;;17.80;12.90;;;;;;;;;;4970700;28;20137;-77
2022/12/10 01:31:54;;;;;;;19.38;13.13;;;;;;;;;;4954279;28;20238;-77
2022/12/10 01:34:22;;;;;;;21.38;14.60;;;;;;;;;;4970574;28;20047;-77
2022/12/10 01:36:52;;;;;;;23.02;17.00;;;;;;;;;;4953768;28;20059;-76
2022/12/10 01:39:20;;;;;;;26.42;16.50;;;;;;;;;;4971139;28;20109;-78
2022/12/10 01:41:58;;;;;;;18.23;13.32;;;;;;;;;;4953035;28;20530;-77
2022/12/10 01:44:25;;;;;;;25.88;15.90;;;;;;;;;;4969076;28;20045;-77
2022/12/10 01:46:57;;;;;;;21.65;14.65;;;;;;;;;;4955306;28;20126;-78
2022/12/10 01:49:26;;;;;;;18.88;14.32;;;;;;;;;;4960444;28;20043;-78
2022/12/10 01:51:55;;;;;;;19.75;14.40;;;;;;;;;;4953245;28;20043;-75
2022/12/10 01:54:27;;;;;;;22.55;15.00;;;;;;;;;;4953669;28;20046;-76
2022/12/10 01:56:54;;;;;;;;;;;;;;;;;;4950086;28;20067;-76
2022/12/10 01:59:25;;;;;;;21.88;14.70;;;;;;;;;;4966695;28;20008;-77
2022/12/10 02:02:07;;;;;;;22.13;14.77;;;;;;;;;;4960192;28;20057;-76
2022/12/10 02:04:48;;;;;;;20.60;15.25;;;;;;;;;;4939481;28;20188;-77
2022/12/10 02:07:36;;;;;;;25.30;15.43;;;;;;;;;;4949681;28;20240;-77
2022/12/10 02:10:15;;;;;;;19.77;14.43;;;;;;;;;;4930340;29;20059;-77
2022/12/10 02:12:45;;;;;;;22.73;15.82;;;;;;;;;;4956990;28;20054;-77
2022/12/10 02:15:17;;;;;;;22.50;14.60;;;;;;;;;;4985621;23;20039;-81
2022/12/10 02:17:56;;;;;;;20.33;14.02;;;;;;;;;;5020169;28;20048;-81
2022/12/10 02:20:26;;;;;;;19.55;14.75;;;;;;;;;;4997790;28;20053;-82
2022/12/10 02:22:57;;;;;;;23.70;15.77;;;;;;;;;;4991985;28;20041;-82
2022/12/10 02:25:27;;;;;;;24.70;15.93;;;;;;;;;;5032173;28;20041;-81
2022/12/10 02:27:58;;;;;;;23.10;15.80;;;;;;;;;;5016996;28;20482;-82
2022/12/10 02:30:27;;;;;;;25.75;17.55;;;;;;;;;;5015344;28;20483;-82
2022/12/10 02:32:55;;;;;;;18.50;13.35;;;;;;;;;;5025502;28;20040;-82
2022/12/10 02:35:27;;;;;;;22.20;14.00;;;;;;;;;;5029643;28;20079;-81
2022/12/10 02:38:03;;;;;;;25.02;15.32;;;;;;;;;;4995243;28;20045;-81
2022/12/10 02:40:32;;;;;;;24.80;16.73;;;;;;;;;;5005791;28;20030;-82
2022/12/10 02:43:02;;;;;;;21.00;15.10;;;;;;;;;;5017688;28;20049;-82
2022/12/10 02:45:29;;;;;;;23.77;16.17;;;;;;;;;;5018219;28;20120;-81
2022/12/10 02:47:59;;;;;;;18.98;14.63;;;;;;;;;;5008251;28;20053;-81
2022/12/10 02:50:34;;;;;;;22.17;15.35;;;;;;;;;;5019686;28;20037;-81
2022/12/10 02:53:03;;;;;;;24.63;16.63;;;;;;;;;;5000293;28;20045;-82
2022/12/10 02:55:44;;;;;;;20.95;14.48;;;;;;;;;;5015436;28;20041;-82
2022/12/10 02:58:17;;;;;;;22.77;15.85;;;;;;;;;;5033463;28;20042;-81
2022/12/10 03:00:52;;;;;;;24.58;15.73;;;;;;;;;;4999303;28;20045;-82
2022/12/10 03:03:28;;;;;;;21.02;14.63;;;;;;;;;;5032018;28;20044;-81
2022/12/10 03:06:00;;;;;;;23.48;15.20;;;;;;;;;;5003018;28;20064;-81
2022/12/10 03:08:29;;;;;;;21.88;15.43;;;;;;;;;;5047697;28;20058;-81
2022/12/10 03:11:00;;;;;;;29.48;17.65;;;;;;;;;;5037692;28;20042;-81
2022/12/10 03:13:29;;;;;;;20.13;15.00;;;;;;;;;;5035834;28;20052;-81
2022/12/10 03:15:57;;;;;;;24.70;16.02;;;;;;;;;;5037542;28;20510;-82
2022/12/10 03:18:25;;;;;;;19.33;13.80;;;;;;;;;;5037474;28;20065;-81
2022/12/10 03:20:58;;;;;;;24.02;15.20;;;;;;;;;;5035219;28;20046;-82
2022/12/10 03:23:27;;;;;;;22.92;14.98;;;;;;;;;;5036376;28;20042;-81
2022/12/10 03:25:54;;;;;;;21.48;15.13;;;;;;;;;;5015629;28;20045;-82
2022/12/10 03:28:23;;;;;;;18.88;13.63;;;;;;;;;;5019830;28;20045;-82
2022/12/10 03:30:50;;;;;;;20.15;14.95;;;;;;;;;;5035571;28;20132;-82
2022/12/10 03:33:18;;;;;;;24.15;15.30;;;;;;;;;;5019185;28;20053;-81
2022/12/10 03:35:46;;;;;;;24.48;17.33;;;;;;;;;;5018300;28;20120;-81
2022/12/10 03:38:14;;;;;;;18.60;14.68;;;;;;;;;;5036357;28;20495;-81
2022/12/10 03:40:42;;;;;;;21.13;14.18;;;;;;;;;;5018786;28;20053;-81
2022/12/10 03:43:12;;;;;;;19.98;14.60;;;;;;;;;;5034931;28;20049;-80
2022/12/10 03:45:40;;;;;;;25.02;16.33;;;;;;;;;;5032001;28;20379;-81
2022/12/10 03:48:07;;;;;;;19.10;14.02;;;;;;;;;;5019110;28;20328;-80
2022/12/10 03:50:35;;;;;;;20.00;14.15;;;;;;;;;;5034458;28;20042;-82
2022/12/10 03:53:02;;;;;;;18.27;13.02;;;;;;;;;;5022779;28;20069;-83
2022/12/10 03:55:29;;;;;;;20.75;14.05;;;;;;;;;;5030854;28;20041;-83
2022/12/10 03:57:56;;;;;;;20.45;14.55;;;;;;;;;;5012176;28;20502;-82
2022/12/10 04:00:24;;;;;;;20.42;15.18;;;;;;;;;;5032088;28;20038;-82
2022/12/10 04:02:51;;;;;;;23.73;14.80;;;;;;;;;;5030746;28;20078;-81
2022/12/10 04:05:18;;;;;;;21.05;15.35;;;;;;;;;;5031654;28;20048;-82
2022/12/10 04:07:45;;;;;;;21.17;14.90;;;;;;;;;;5032498;28;20073;-82
2022/12/10 04:10:13;;;;;;;20.38;14.57;;;;;;;;;;5033266;28;20465;-82
2022/12/10 04:12:40;;;;;;;21.30;15.32;;;;;;;;;;5032731;28;20064;-83
2022/12/10 04:17:53;;;;;;;19.75;13.88;;;;;;;;;;5014533;28;20049;-82
2022/12/10 04:28:40;;;;;;;22.77;14.80;;;;;;;;;;5031512;28;20041;-83
2022/12/10 04:31:07;;;;;;;19.10;14.07;;;;;;;;;;5013751;28;20079;-82
2022/12/10 04:33:34;;;;;;;17.45;12.77;;;;;;;;;;4997169;28;20049;-81
2022/12/10 04:36:02;;;;;;;19.20;13.90;;;;;;;;;;4995308;28;20121;-83
2022/12/10 04:38:29;;;;;;;22.55;15.95;;;;;;;;;;5003361;28;20309;-82
2022/12/10 04:40:56;;;;;;;22.67;14.95;;;;;;;;;;5035043;28;20041;-82
2022/12/10 04:43:26;;;;;;;21.50;14.10;;;;;;;;;;5039858;28;20045;-82
2022/12/10 04:45:56;;;;;;;22.73;15.88;;;;;;;;;;5036203;28;20057;-80
2022/12/10 04:48:23;;;;;;;20.05;13.77;;;;;;;;;;5017664;28;20042;-82
2022/12/10 04:50:51;;;;;;;22.58;15.82;;;;;;;;;;5030406;28;20064;-82
2022/12/10 04:53:18;;;;;;;20.63;15.20;;;;;;;;;;5020180;28;20087;-82
2022/12/10 04:55:45;;;;;;;22.17;15.43;;;;;;;;;;5036843;28;20384;-83
2022/12/10 04:58:12;;;;;;;21.02;15.80;;;;;;;;;;5016387;28;20084;-82
2022/12/10 05:00:40;;;;;;;22.67;16.10;;;;;;;;;;5031697;28;20064;-83
2022/12/10 05:03:07;;;;;;;24.48;16.23;;;;;;;;;;5031015;28;20549;-82
2022/12/10 05:05:35;;;;;;;20.55;15.65;;;;;;;;;;4999289;28;20052;-81
2022/12/10 05:08:02;;;;;;;24.65;16.05;;;;;;;;;;5000341;28;20060;-82
2022/12/10 05:10:29;;;;;;;20.73;15.35;;;;;;;;;;5032816;28;20104;-82
2022/12/10 05:12:57;;;;;;;21.75;15.18;;;;;;;;;;5015310;28;20041;-81
2022/12/10 05:15:24;;;;;;;22.90;15.63;;;;;;;;;;5027264;28;20045;-82
2022/12/10 05:17:51;;;;;;;18.00;13.82;;;;;;;;;;4992989;28;20056;-82
2022/12/10 05:20:18;;;;;;;20.60;14.77;;;;;;;;;;5012518;28;20042;-82
2022/12/10 05:25:52;;;;;;;19.52;14.60;;;;;;;;;;5031454;28;20172;-81
2022/12/10 05:28:20;;;;;;;18.33;13.85;;;;;;;;;;5030889;28;20520;-82
2022/12/10 05:30:47;;;;;;;22.40;14.73;;;;;;;;;;5015258;28;20045;-82
2022/12/10 05:33:14;;;;;;;17.95;14.13;;;;;;;;;;5048727;28;20564;-82
2022/12/10 05:35:42;;;;;;;18.83;13.75;;;;;;;;;;5035880;28;20049;-83
2022/12/10 05:38:10;;;;;;;19.05;13.48;;;;;;;;;;5037210;28;20054;-82
2022/12/10 05:40:37;;;;;;;20.15;13.15;;;;;;;;;;5035227;28;20045;-82
2022/12/10 05:43:05;;;;;;;21.63;14.57;;;;;;;;;;5035674;28;20037;-81
2022/12/10 05:45:32;;;;;;;20.80;14.55;;;;;;;;;;5036185;28;20072;-83
2022/12/10 05:48:00;;;;;;;21.88;14.10;;;;;;;;;;5000402;28;20310;-82
2022/12/10 05:50:28;;;;;;;24.50;16.70;;;;;;;;;;5035447;28;20092;-81
2022/12/10 05:52:55;;;;;;;23.10;15.10;;;;;;;;;;5018685;28;20120;-82
2022/12/10 05:55:22;;;;;;;21.20;14.90;;;;;;;;;;5035408;28;20073;-82
2022/12/10 05:57:49;;;;;;;22.67;14.85;;;;;;;;;;5000073;28;20133;-83
2022/12/10 06:00:17;;;;;;;18.85;14.10;;;;;;;;;;5032336;28;20096;-82
2022/12/10 06:02:44;;;;;;;22.70;16.08;;;;;;;;;;5030613;28;20402;-82
2022/12/10 06:05:11;;;;;;;21.10;14.43;;;;;;;;;;5031069;28;20046;-82
2022/12/10 06:07:38;;;;;;;22.67;15.60;;;;;;;;;;5022137;28;20079;-81
2022/12/10 06:10:06;;;;;;;22.05;15.65;;;;;;;;;;5025596;28;20041;-82
2022/12/10 06:12:34;;;;;;;22.48;15.20;;;;;;;;;;5043576;28;20053;-81
2022/12/10 06:15:03;;;;;;;21.92;15.15;;;;;;;;;;5046309;28;20046;-81
2022/12/10 06:17:30;;;;;;;20.35;15.18;;;;;;;;;;5043776;28;20115;-82
2022/12/10 06:19:58;;;;;;;19.50;14.57;;;;;;;;;;5040169;28;20057;-82
2022/12/10 06:22:25;;;;;;;18.23;12.45;;;;;;;;;;5020095;28;20092;-82
2022/12/10 06:24:52;;;;;;;22.85;15.93;;;;;;;;;;5034803;28;20128;-81
2022/12/10 06:27:20;;;;;;;18.67;13.90;;;;;;;;;;5033456;28;20212;-82
2022/12/10 06:29:47;;;;;;;20.70;15.02;;;;;;;;;;5034007;28;20474;-82
2022/12/10 06:32:14;;;;;;;25.73;14.65;;;;;;;;;;5034765;28;20072;-82
2022/12/10 06:34:41;;;;;;;20.85;12.60;;;;;;;;;;5017655;28;20060;-81
2022/12/10 06:37:09;;;;;;;21.48;15.35;;;;;;;;;;5035307;28;20491;-81
2022/12/10 06:39:36;;;;;;;23.67;16.58;;;;;;;;;;5035605;28;20084;-82
2022/12/10 06:42:05;;;;;;;20.70;14.15;;;;;;;;;;5018071;28;20045;-82
2022/12/10 06:44:32;;;;;;;25.60;17.00;;;;;;;;;;5018093;28;20065;-83
2022/12/10 06:46:59;;;;;;;23.25;15.52;;;;;;;;;;5034946;28;20045;-82
2022/12/10 06:49:27;;;;;;;22.15;14.63;;;;;;;;;;5034991;28;20037;-82
2022/12/10 06:51:54;;;;;;;23.13;16.27;;;;;;;;;;5035561;28;20033;-82
2022/12/10 06:54:21;;;;;;;24.88;16.08;;;;;;;;;;5015670;28;20096;-82
2022/12/10 06:56:49;;;;;;;25.27;16.73;;;;;;;;;;5033551;28;20532;-82
2022/12/10 06:59:16;;;;;;;22.23;15.25;;;;;;;;;;5000654;28;20091;-82
2022/12/10 07:01:43;;;;;;;22.30;15.30;;;;;;;;;;5034418;28;20049;-81
2022/12/10 07:04:10;;;;;;;26.63;17.92;;;;;;;;;;5029787;28;20425;-81
2022/12/10 07:06:38;;;;;;;25.23;16.50;;;;;;;;;;4999329;28;20406;-82
2022/12/10 07:09:05;;;;;;;24.85;16.63;;;;;;;;;;5015240;28;20458;-82
2022/12/10 07:11:32;;;;;;;26.88;17.08;;;;;;;;;;5012656;28;20041;-82
2022/12/10 07:14:00;;;;;;;27.38;18.15;;;;;;;;;;5014947;28;20148;-82
2022/12/10 07:16:28;;;;;;;26.58;17.80;;;;;;;;;;5013123;28;20045;-82
2022/12/10 07:18:56;;;;;;;28.48;17.42;;;;;;;;;;5006674;28;20064;-84
2022/12/10 07:21:25;;;;;;;33.13;19.70;;;;;;;;;;5029103;28;20044;-82
2022/12/10 07:23:54;;;;;;;29.65;19.30;;;;;;;;;;5034085;28;20064;-82
2022/12/10 07:26:22;;;;;;;28.30;19.35;;;;;;;;;;5032856;28;20044;-82
2022/12/10 07:28:49;;;;;;;30.20;19.52;;;;;;;;;;4998995;28;20038;-83
2022/12/10 07:31:21;;;;;;;26.88;16.40;;;;;;;;;;5012579;28;20038;-83
2022/12/10 07:33:50;;;;;;;29.65;18.60;;;;;;;;;;5011053;28;20065;-82
2022/12/10 07:36:17;;;;;;;28.63;19.35;;;;;;;;;;5030767;28;20060;-83
2022/12/10 07:38:46;;;;;;;31.00;20.10;;;;;;;;;;5013769;28;20041;-83
2022/12/10 07:41:14;;;;;;;30.60;20.08;;;;;;;;;;5033064;28;20407;-83
2022/12/10 07:43:42;;;;;;;28.02;19.20;;;;;;;;;;5013783;28;20049;-83
2022/12/10 07:46:10;;;;;;;29.80;17.95;;;;;;;;;;5042103;28;20040;-82
2022/12/10 07:48:39;;;;;;;29.15;18.75;;;;;;;;;;5029199;28;20045;-81
2022/12/10 07:51:06;;;;;;;32.92;20.88;;;;;;;;;;5028675;28;20065;-81
2022/12/10 07:53:34;;;;;;;35.03;22.85;;;;;;;;;;5017417;28;20045;-83
2022/12/10 07:56:02;;;;;;;39.25;21.38;;;;;;;;;;5019445;28;20053;-84
2022/12/10 07:58:30;;;;;;;27.65;18.67;;;;;;;;;;5017007;28;20112;-82
2022/12/10 08:00:57;;;;;;;27.70;17.02;;;;;;;;;;5036180;28;20050;-82
2022/12/10 08:03:25;;;;;;;27.83;18.48;;;;;;;;;;5032717;28;20095;-81
2022/12/10 08:06:05;;;;;;;30.38;19.27;;;;;;;;;;5032746;28;20486;-83
2022/12/10 08:08:34;;;;;;;27.52;17.50;;;;;;;;;;5014033;28;20039;-85
2022/12/10 08:11:02;;;;;;;24.92;15.90;;;;;;;;;;5024974;28;20041;-82
2022/12/10 08:13:29;;;;;;;23.35;15.30;;;;;;;;;;5009914;28;20541;-82
2022/12/10 08:18:50;;;;;;;24.23;15.77;;;;;;;;;;5005213;28;20049;-71
2022/12/10 08:21:19;;;;;;;26.88;20.08;;;;;;;;;;4991989;28;20054;-75
2022/12/10 08:23:46;;;;;;;26.15;18.02;;;;;;;;;;5002473;28;20068;-71
2022/12/10 08:26:21;;;;;;;28.75;19.15;;;;;;;;;;5003361;28;20043;-75
2022/12/10 08:28:49;;;;;;;28.60;18.33;;;;;;;;;;5004047;28;20037;-75
2022/12/10 08:31:17;;;;;;;28.73;19.52;;;;;;;;;;5004646;28;20084;-73
2022/12/10 08:33:45;;;;;;;28.58;18.25;;;;;;;;;;5000849;28;20505;-74
2022/12/10 08:36:14;;;;;;;27.98;17.52;;;;;;;;;;5001608;28;20089;-72
2022/12/10 08:38:41;;;;;;;29.60;19.02;;;;;;;;;;5010821;28;20038;-76
2022/12/10 08:41:11;;;;;;;29.63;19.27;;;;;;;;;;5005819;28;20101;-72
2022/12/10 08:43:38;;;;;;;27.13;18.30;;;;;;;;;;5003350;28;20267;-73
2022/12/10 08:46:06;;;;;;;41.67;25.38;;;;;;;;;;5003349;28;20038;-74
2022/12/10 08:48:34;;;;;;;30.90;19.35;;;;;;;;;;4985995;28;20440;-74
2022/12/10 08:51:02;;;;;;;30.92;19.77;;;;;;;;;;5003457;28;20133;-74
2022/12/10 08:53:31;;;;;;;28.45;19.15;;;;;;;;;;4997888;28;20517;-75
2022/12/10 08:55:58;;;;;;;29.00;20.13;;;;;;;;;;4973397;28;20104;-75
2022/12/10 08:58:26;;;;;;;26.67;18.48;;;;;;;;;;5005601;28;20048;-74
2022/12/10 09:00:53;;;;;;;31.52;19.83;;;;;;;;;;5004157;28;20053;-73
2022/12/10 09:03:20;;;;;;;29.15;19.02;;;;;;;;;;5005344;28;20046;-73
2022/12/10 09:05:48;;;;;;;27.98;18.92;;;;;;;;;;5004254;28;20042;-76
2022/12/10 09:08:15;;;;;;;30.85;20.08;;;;;;;;;;4987468;28;20121;-74
2022/12/10 09:10:42;;;;;;;26.92;17.60;;;;;;;;;;4995165;28;20072;-74
2022/12/10 09:13:10;;;;;;;26.83;18.25;;;;;;;;;;4992380;28;20505;-74
2022/12/10 09:15:37;;;;;;;27.60;17.30;;;;;;;;;;5009145;28;20097;-75
2022/12/10 09:18:05;;;;;;;25.02;17.70;;;;;;;;;;5008053;28;20037;-74
2022/12/10 09:20:32;;;;;;;27.17;18.27;;;;;;;;;;5009541;28;20045;-75
2022/12/10 09:22:59;;;;;;;26.48;18.85;;;;;;;;;;4992985;28;20038;-75
2022/12/10 09:25:27;;;;;;;28.83;19.58;;;;;;;;;;4989458;28;20042;-74
2022/12/10 09:27:54;;;;;;;29.42;21.13;;;;;;;;;;4993388;28;20041;-74
2022/12/10 09:30:22;;;;;;;31.80;20.55;;;;;;;;;;5007555;28;20046;-75
2022/12/10 09:32:49;;;;;;;45.13;32.55;;;;;;;;;;5008723;28;20041;-75
2022/12/10 09:35:16;;;;;;;30.50;20.95;;;;;;;;;;5009297;28;20057;-73
2022/12/10 09:37:44;;;;;;;25.98;17.48;;;;;;;;;;5008433;28;20038;-75
2022/12/10 09:40:15;;;;;;;26.92;19.00;;;;;;;;;;4975865;28;20429;-75
2022/12/10 09:42:59;;;;;;;28.58;19.38;;;;;;;;;;5007812;28;20081;-74
2022/12/10 09:45:39;;;;;;;28.02;17.85;;;;;;;;;;5002971;28;20046;-74
2022/12/10 09:48:06;;;;;;;28.55;18.52;;;;;;;;;;5001895;28;20096;-75
2022/12/10 09:50:38;;;;;;;27.42;18.75;;;;;;;;;;5009346;28;20042;-76
2022/12/10 09:53:09;;;;;;;29.77;19.05;;;;;;;;;;4985739;28;20061;-75
2022/12/10 09:55:38;;;;;;;24.27;17.20;;;;;;;;;;5008698;28;20513;-75
2022/12/10 09:58:06;;;;;;;28.70;19.33;;;;;;;;;;4993593;28;20425;-74
2022/12/10 10:00:36;;;;;;;32.85;19.25;;;;;;;;;;4981544;28;20124;-77
2022/12/10 10:03:04;;;;;;;32.38;18.88;;;;;;;;;;4999241;28;20100;-75
2022/12/10 10:05:34;;;;;;;29.30;19.17;;;;;;;;;;5008639;28;20037;-75
2022/12/10 10:08:04;;;;;;;26.95;17.67;;;;;;;;;;4996253;28;20042;-75
2022/12/10 10:10:33;;;;;;;32.15;20.00;;;;;;;;;;4996564;28;20053;-74
2022/12/10 10:13:09;;;;;;;26.48;17.27;;;;;;;;;;5008204;28;20045;-75
2022/12/10 10:15:38;;;;;;;26.13;18.58;;;;;;;;;;5006811;28;20379;-75
2022/12/10 10:18:24;;;;;;;28.83;19.95;;;;;;;;;;5002360;28;20092;-73
2022/12/10 10:21:02;;;;;;;26.08;18.65;;;;;;;;;;5003170;28;20041;-75
2022/12/10 10:23:30;;;;;;;33.45;20.52;;;;;;;;;;4998125;28;20120;-73
2022/12/10 10:25:57;;;;;;;25.98;17.88;;;;;;;;;;4997526;28;20042;-74
2022/12/10 10:28:27;;;;;;;25.67;17.98;;;;;;;;;;4998632;28;20157;-75
2022/12/10 10:31:13;;;;;;;31.67;19.85;;;;;;;;;;4984067;28;20065;-74
2022/12/10 10:33:49;;;;;;;30.40;19.05;;;;;;;;;;5006087;28;20206;-73
2022/12/10 10:36:35;;;;;;;28.98;19.00;;;;;;;;;;4998395;28;20046;-75
2022/12/10 10:39:11;;;;;;;29.92;20.80;;;;;;;;;;4983485;28;20050;-74
2022/12/10 10:41:40;;;;;;;27.27;19.00;;;;;;;;;;4999117;28;20482;-75
2022/12/10 10:44:16;;;;;;;28.40;19.63;;;;;;;;;;4978532;28;20042;-75
2022/12/10 10:46:45;;;;;;;25.52;18.80;;;;;;;;;;5007208;28;20042;-74
2022/12/10 10:49:17;;;;;;;;;;;;;;;;;;5009094;28;20053;-74
2022/12/10 10:51:47;;;;;;;30.38;19.58;;;;;;;;;;4989978;28;19956;-74
2022/12/10 10:54:31;;;;;;;26.05;18.30;;;;;;;;;;4994630;28;20391;-74
2022/12/10 10:57:24;;;;;;;31.25;18.40;;;;;;;;;;5007739;28;20085;-76
2022/12/10 10:59:53;;;;;;;29.10;17.67;;;;;;;;;;4993827;28;20262;-75
2022/12/10 11:02:30;;;;;;;29.58;18.90;;;;;;;;;;4977148;28;20096;-74
2022/12/10 11:04:59;;;;;;;30.52;20.55;;;;;;;;;;4960865;28;20579;-76
2022/12/10 11:07:30;;;;;;;30.50;20.17;;;;;;;;;;4963917;28;20517;-76
2022/12/10 11:10:07;;;;;;;29.42;17.85;;;;;;;;;;4961749;28;20144;-76
2022/12/10 11:12:37;;;;;;;29.02;19.40;;;;;;;;;;5008610;28;20056;-76
2022/12/10 11:15:25;;;;;;;26.48;17.83;;;;;;;;;;4980022;28;20049;-76
2022/12/10 11:17:55;;;;;;;27.08;19.40;;;;;;;;;;4991455;28;20050;-74
2022/12/10 11:20:22;;;;;;;29.25;20.20;;;;;;;;;;4991383;28;20097;-76
2022/12/10 11:22:53;;;;;;;35.05;24.60;;;;;;;;;;5011797;28;20057;-75
2022/12/10 11:25:27;;;;;;;25.42;18.92;;;;;;;;;;4971224;28;20049;-75
2022/12/10 11:28:06;;;;;;;30.65;20.02;;;;;;;;;;5003421;28;20414;-73
2022/12/10 11:30:36;;;;;;;33.53;21.98;;;;;;;;;;4971705;28;20054;-75
2022/12/10 11:33:23;;;;;;;26.98;18.85;;;;;;;;;;4970628;28;20047;-76
2022/12/10 11:36:06;;;;;;;30.85;19.33;;;;;;;;;;4972120;28;20496;-75
2022/12/10 11:38:52;;;;;;;28.55;18.40;;;;;;;;;;4973206;28;20049;-74
2022/12/10 11:41:33;;;;;;;25.23;17.65;;;;;;;;;;4975110;28;20536;-75
2022/12/10 11:44:17;;;;;;;27.58;17.85;;;;;;;;;;4994657;28;20531;-75
2022/12/10 11:47:03;;;;;;;25.58;17.20;;;;;;;;;;4991409;28;20054;-74
2022/12/10 11:49:40;;;;;;;26.67;18.58;;;;;;;;;;5007261;28;20429;-75
2022/12/10 11:52:28;;;;;;;28.83;18.88;;;;;;;;;;4992656;28;20056;-75
2022/12/10 11:55:31;;;;;;;24.08;16.60;;;;;;;;;;4975026;28;20050;-75
2022/12/10 11:58:17;;;;;;;27.23;18.40;;;;;;;;;;4969171;28;20501;-75
2022/12/10 12:00:50;;;;;;;25.42;17.33;;;;;;;;;;5009064;28;20058;-76
2022/12/10 12:03:49;;;;;;;26.73;19.48;;;;;;;;;;5006992;28;20041;-76
2022/12/10 12:06:19;;;;;;;26.85;17.83;;;;;;;;;;5006706;28;20038;-76
2022/12/10 12:08:52;;;;;;;26.03;17.77;;;;;;;;;;4975170;28;20054;-76
2022/12/10 12:11:25;;;;;;;25.60;17.08;;;;;;;;;;4989942;28;20038;-74
2022/12/10 12:14:06;;;;;;;20.80;14.65;;;;;;;;;;4997810;28;20540;-75
2022/12/10 12:16:57;;;;;;;24.13;17.05;;;;;;;;;;4986975;28;20046;-76
2022/12/10 12:19:31;;;;;;;24.88;17.75;;;;;;;;;;4989686;28;20054;-76
2022/12/10 12:22:02;;;;;;;29.58;23.98;;;;;;;;;;4994003;28;20099;-74
2022/12/10 12:24:41;;;;;;;21.00;14.70;;;;;;;;;;5007638;28;20124;-76
2022/12/10 12:27:15;;;;;;;24.23;16.73;;;;;;;;;;5008920;28;20120;-76
2022/12/10 12:29:45;;;;;;;22.15;16.27;;;;;;;;;;5010070;28;20119;-76
2022/12/10 12:32:12;;;;;;;21.58;15.18;;;;;;;;;;5005106;28;20041;-75
2022/12/10 12:34:39;;;;;;;21.20;15.40;;;;;;;;;;5003535;28;20050;-75
2022/12/10 12:37:09;;;;;;;19.92;14.60;;;;;;;;;;5006873;28;20508;-76
2022/12/10 12:39:44;;;;;;;20.08;14.98;;;;;;;;;;5006030;28;20050;-77
2022/12/10 12:42:23;;;;;;;25.98;18.17;;;;;;;;;;5007751;28;20057;-74
2022/12/10 12:45:02;;;;;;;23.98;16.45;;;;;;;;;;4979674;28;20533;-76
2022/12/10 12:47:49;;;;;;;20.95;15.68;;;;;;;;;;4996221;28;20422;-75
2022/12/10 12:50:28;;;;;;;22.70;15.00;;;;;;;;;;5013926;28;20382;-74
2022/12/10 12:52:57;;;;;;;24.90;15.18;;;;;;;;;;4995815;28;20050;-76
2022/12/10 12:55:39;;;;;;;20.80;15.73;;;;;;;;;;4994687;28;20042;-74
2022/12/10 12:58:18;;;;;;;21.45;15.18;;;;;;;;;;5013608;28;20550;-75
2022/12/10 13:00:48;;;;;;;24.10;17.00;;;;;;;;;;5013122;28;20498;-76
2022/12/10 13:03:16;;;;;;;23.45;15.82;;;;;;;;;;4996283;28;20042;-76
2022/12/10 13:05:43;;;;;;;23.45;15.65;;;;;;;;;;5012660;28;20092;-77
2022/12/10 13:08:20;;;;;;;22.55;15.75;;;;;;;;;;5013553;28;20046;-75
2022/12/10 13:11:06;;;;;;;25.00;15.38;;;;;;;;;;4996027;28;20104;-76
2022/12/10 13:13:38;;;;;;;19.17;13.65;;;;;;;;;;4996858;28;20050;-74
2022/12/10 13:16:24;;;;;;;23.13;15.23;;;;;;;;;;5031665;28;20058;-74
2022/12/10 13:19:11;;;;;;;20.58;13.85;;;;;;;;;;5032041;28;20050;-75
2022/12/10 13:21:56;;;;;;;21.55;14.55;;;;;;;;;;5000472;28;20512;-76
2022/12/10 13:24:36;;;;;;;19.77;13.68;;;;;;;;;;5015962;28;20053;-75
2022/12/10 13:27:14;;;;;;;19.73;14.32;;;;;;;;;;5017675;28;20045;-76
2022/12/10 13:29:58;;;;;;;20.25;13.52;;;;;;;;;;5017830;28;20046;-76
2022/12/10 13:32:43;;;;;;;18.70;13.38;;;;;;;;;;5020610;28;20036;-76
2022/12/10 13:35:16;;;;;;;19.45;13.18;;;;;;;;;;5017761;28;20061;-76
2022/12/10 13:38:04;;;;;;;19.20;14.30;;;;;;;;;;4996513;28;20049;-75
2022/12/10 13:46:26;;;;;;;18.58;12.63;;;;;;;;;;4975449;28;20046;-76
2022/12/10 13:48:56;;;;;;;24.67;14.70;;;;;;;;;;4963514;28;20046;-75
2022/12/10 13:51:34;;;;;;;19.45;13.63;;;;;;;;;;4972588;28;20452;-76
2022/12/10 13:54:20;;;;;;;16.17;12.93;;;;;;;;;;4979175;28;20304;-76
2022/12/10 13:56:54;;;;;;;19.20;13.50;;;;;;;;;;4992762;28;20125;-77
2022/12/10 13:59:33;;;;;;;18.15;13.38;;;;;;;;;;4993258;28;20144;-75
2022/12/10 14:02:04;;;;;;;19.60;13.27;;;;;;;;;;4974580;28;20041;-76
2022/12/10 14:04:51;;;;;;;22.42;14.95;;;;;;;;;;4967282;28;20437;-75
2022/12/10 14:07:19;;;;;;;20.05;13.35;;;;;;;;;;4990527;28;20038;-76
2022/12/10 14:09:51;;;;;;;20.13;13.60;;;;;;;;;;4976695;28;20039;-75
2022/12/10 14:12:32;;;;;;;20.65;13.90;;;;;;;;;;4995708;28;20053;-75
2022/12/10 14:15:01;;;;;;;22.50;14.70;;;;;;;;;;4966020;28;20077;-75
2022/12/10 14:17:37;;;;;;;17.75;12.80;;;;;;;;;;5024512;23;20058;-81
2022/12/10 14:20:05;;;;;;;16.27;11.85;;;;;;;;;;4981424;28;20042;-81
2022/12/10 14:22:35;;;;;;;14.60;11.80;;;;;;;;;;4980591;28;20050;-81
2022/12/10 14:25:11;;;;;;;19.98;13.50;;;;;;;;;;4980207;28;20506;-82
2022/12/10 14:27:40;;;;;;;18.17;12.48;;;;;;;;;;4981041;28;20883;-82
2022/12/10 14:30:16;;;;;;;19.38;13.38;;;;;;;;;;4980821;28;20042;-81
2022/12/10 14:32:44;;;;;;;18.95;13.60;;;;;;;;;;4981417;28;20569;-81
2022/12/10 14:35:15;;;;;;;19.90;13.93;;;;;;;;;;4978761;28;20043;-80
2022/12/10 14:37:52;;;;;;;18.02;13.18;;;;;;;;;;4964168;28;20046;-81
2022/12/10 14:40:22;;;;;;;18.27;13.63;;;;;;;;;;4980511;28;20467;-82
2022/12/10 14:42:51;;;;;;;18.45;13.35;;;;;;;;;;4979422;28;20411;-81
2022/12/10 14:45:18;;;;;;;17.63;13.70;;;;;;;;;;4963154;28;20466;-81
2022/12/10 14:47:48;;;;;;;16.58;12.93;;;;;;;;;;4980213;28;20038;-81
2022/12/10 14:50:17;;;;;;;22.67;13.38;;;;;;;;;;4964100;28;20140;-81
2022/12/10 14:52:51;;;;;;;20.75;14.48;;;;;;;;;;4980621;28;20035;-82
2022/12/10 14:55:23;;;;;;;19.95;13.93;;;;;;;;;;4978476;28;20650;-81
2022/12/10 14:57:54;;;;;;;22.38;14.52;;;;;;;;;;4979938;28;20039;-81
2022/12/10 15:00:23;;;;;;;18.50;13.05;;;;;;;;;;4963285;28;20085;-81
2022/12/10 15:03:01;;;;;;;23.13;14.77;;;;;;;;;;4979114;28;20504;-81